Latest Coastal Weather Observations for Charles Point

IDD60701

Issued at 5:05 am CST Thursday 18 September 2014 (issued every 10 minutes, with the page automatically refreshed every 10 minutes)

About coastal observations | Map of coastal stations | Coastal observations for NT | Marine services | Other Formats
Station Details ID: 014031 Name: CHARLES POINT Lat: -12.39 Lon: 130.63 Height: 14.0 m
Data from the previous 72 hours. | See also: Recent months for locations in Northern Territory
Date/Time
CST
Temp

°C
Wind Pressure Rain
since 9am
mm
Weather Cloud Vis
km
Sea
Height
m
Swell
Dir
 
Speed
knots
Gust
knots
hPa Trend Height
m
Period
s
Dir
18/05:00am 22.6 N 1 2 1014.2 - 0.0 - - - - - - -
18/04:30am 22.9 CALM 0 1 1014.0 - 0.0 - - - - - - -
18/04:00am 23.4 CALM 0 3 1014.1 - 0.0 - - - - - - -
18/03:30am 24.5 N 1 2 1014.1 - 0.0 - - - - - - -
18/03:00am 26.4 N 5 7 1014.1 - 0.0 - - - - - - -
18/02:30am 26.4 N 4 7 1014.3 - 0.0 - - - - - - -
18/02:00am 26.6 N 6 9 1014.7 - 0.0 - - - - - - -
18/01:30am 26.7 N 7 8 1014.9 - 0.0 - - - - - - -
18/01:00am 26.8 N 6 8 1015.1 - 0.0 - - - - - - -
18/12:30am 26.8 N 9 12 1015.3 - 0.0 - - - - - - -
18/12:00am 26.9 NNW 10 13 1015.3 - 0.0 - - - - - - -
 
Date/Time
CST
Temp

°C
Wind Pressure Rain
since 9am
mm
Weather Cloud Vis
km
Sea
Height
m
Swell
Dir
 
Speed
knots
Gust
knots
hPa Trend Height
m
Period
s
Dir
17/11:30pm 27.0 NNW 11 14 1015.2 - 0.0 - - - - - - -
17/11:00pm 27.1 NNW 10 15 1015.2 - 0.0 - - - - - - -
17/10:30pm 27.4 NW 9 13 1015.0 - 0.0 - - - - - - -
17/10:00pm 27.5 NW 10 15 1014.8 - 0.0 - - - - - - -
17/09:30pm 27.5 NW 9 15 1014.6 - 0.0 - - - - - - -
17/09:00pm 26.0 CALM 0 1 1014.3 - 0.0 - - - - - - -
17/08:30pm 26.4 S 3 5 1013.6 - 0.0 - - - - - - -
17/08:00pm 26.5 S 4 5 1012.9 - 0.0 - - - - - - -
17/07:30pm 26.9 SSW 3 5 1012.3 - 0.0 - - - - - - -
17/07:00pm 27.3 SW 3 4 1012.0 - 0.0 - - - - - - -
17/06:30pm 28.6 W 1 3 1011.7 - 0.0 - - - - - - -
17/06:00pm 29.7 WNW 2 3 1011.3 - 0.0 - - - - - - -
17/05:30pm 29.1 N 2 3 1011.1 - 0.0 - - - - - - -
17/05:00pm 29.2 NNE 4 6 1011.0 - 0.0 - - - - - - -
17/04:30pm 29.5 NNE 4 6 1011.0 - 0.0 - - - - - - -
17/04:00pm 29.5 N 7 9 1011.0 - 0.0 - - - - - - -
17/03:30pm 29.6 N 6 7 1011.1 - 0.0 - - - - - - -
17/03:00pm 29.7 N 5 7 1011.4 - 0.0 - - - - - - -
17/02:30pm 29.6 NW 6 10 1011.8 - 0.0 - - - - - - -
17/02:00pm 29.6 NNW 7 11 1012.2 - 0.0 - - - - - - -
17/01:30pm 28.9 N 10 12 1012.5 - 0.0 - - - - - - -
17/01:00pm 28.9 N 9 11 1013.0 - 0.0 - - - - - - -
17/12:30pm 29.2 NNE 5 7 1013.7 - 0.0 - - - - - - -
17/12:00pm 29.7 NNE 4 5 1014.2 - 0.0 - - - - - - -
17/11:30am 29.3 NNE 3 5 1014.6 - 0.0 - - - - - - -
17/11:00am 28.5 N 3 4 1014.8 - 0.0 - - - - - - -
17/10:30am 28.1 N 3 5 1015.0 - 0.0 - - - - - - -
17/10:00am 28.1 NW 3 4 1015.1 - 0.0 - - - - - - -
17/09:30am 27.3 NNW 2 3 1015.0 - 0.0 - - - - - - -
17/09:00am 27.8 SSE 2 3 1014.8 - 0.0 - - - - - - -
17/08:30am 26.7 SSE 2 4 1014.6 - 0.0 - - - - - - -
17/08:00am 25.3 S 3 5 1014.3 - 0.0 - - - - - - -
17/07:30am 23.7 S 4 5 1014.0 - 0.0 - - - - - - -
17/07:00am 22.3 S 3 4 1013.7 - 0.0 - - - - - - -
17/06:30am 22.2 S 4 5 1013.5 - 0.0 - - - - - - -
17/06:00am 22.0 S 3 4 1013.1 - 0.0 - - - - - - -
17/05:30am 22.0 S 3 4 1012.7 - 0.0 - - - - - - -
17/05:00am 22.2 W 1 2 1012.5 - 0.0 - - - - - - -
17/04:30am 22.6 CALM 0 0 1012.4 - 0.0 - - - - - - -
17/04:00am 23.1 W 1 2 1012.1 - 0.0 - - - - - - -
17/03:30am 23.6 WNW 1 3 1012.1 - 0.0 - - - - - - -
17/03:00am 23.3 SW 1 2 1012.3 - 0.0 - - - - - - -
17/02:30am 23.5 SW 2 3 1012.4 - 0.0 - - - - - - -
17/02:00am 23.6 WSW 2 3 1012.6 - 0.0 - - - - - - -
17/01:30am 24.0 WSW 2 3 1012.8 - 0.0 - - - - - - -
17/01:00am 24.9 WSW 2 4 1013.0 - 0.0 - - - - - - -
17/12:30am 25.3 W 2 4 1013.1 - 0.0 - - - - - - -
17/12:00am 26.0 WNW 5 7 1013.3 - 0.0 - - - - - - -
 
Date/Time
CST
Temp

°C
Wind Pressure Rain
since 9am
mm
Weather Cloud Vis
km
Sea
Height
m
Swell
Dir
 
Speed
knots
Gust
knots
hPa Trend Height
m
Period
s
Dir
16/11:30pm 26.6 WNW 6 9 1013.2 - 0.0 - - - - - - -
16/11:00pm 26.7 WNW 7 9 1013.1 - 0.0 - - - - - - -
16/10:30pm 26.8 WNW 9 11 1012.9 - 0.0 - - - - - - -
16/10:00pm 27.0 WNW 9 11 1012.5 - 0.0 - - - - - - -
16/09:30pm 27.1 W 9 14 1012.2 - 0.0 - - - - - - -
16/09:00pm 27.3 WNW 11 13 1011.9 - 0.0 - - - - - - -
16/08:30pm 27.4 WNW 10 12 1011.7 - 0.0 - - - - - - -
16/08:00pm 28.5 NNE 5 7 1011.1 - 0.0 - - - - - - -
16/07:30pm 28.3 NNE 6 8 1010.8 - 0.0 - - - - - - -
16/07:00pm 28.1 NE 8 11 1010.2 - 0.0 - - - - - - -
16/06:30pm 28.2 NE 9 14 1010.0 - 0.0 - - - - - - -
16/06:00pm 28.3 NE 10 15 1009.9 - 0.0 - - - - - - -
16/05:30pm 28.6 NE 9 13 1009.9 - 0.0 - - - - - - -
16/05:00pm 29.2 NE 9 12 1009.9 - 0.0 - - - - - - -
16/04:30pm 29.4 NE 8 12 1010.0 - 0.0 - - - - - - -
16/04:00pm 29.8 NNE 11 14 1010.0 - 0.0 - - - - - - -
16/03:30pm 30.2 NNE 9 13 1010.5 - 0.0 - - - - - - -
16/03:00pm 30.1 NNE 8 10 1010.9 - 0.0 - - - - - - -
16/02:30pm 29.4 N 4 6 1011.4 - 0.0 - - - - - - -
16/02:00pm 28.9 N 4 6 1011.7 - 0.0 - - - - - - -
16/01:30pm 28.7 N 3 5 1012.1 - 0.0 - - - - - - -
16/01:00pm 28.6 N 4 6 1012.6 - 0.0 - - - - - - -
16/12:30pm 28.1 N 5 6 1013.1 - 0.0 - - - - - - -
16/12:00pm 28.6 NNE 5 8 1013.6 - 0.0 - - - - - - -
16/11:30am 28.5 NNE 5 6 1013.9 - 0.0 - - - - - - -
16/11:00am 27.9 NNE 3 5 1014.1 - 0.0 - - - - - - -
16/10:30am 27.9 NNE 3 5 1014.5 - 0.0 - - - - - - -
16/10:00am 27.3 N 3 4 1014.6 - 0.0 - - - - - - -
16/09:30am 27.1 N 3 4 1014.4 - 0.0 - - - - - - -
16/09:00am 26.9 N 3 4 1014.1 - 0.0 - - - - - - -
16/08:30am 26.7 NNW 3 4 1013.7 - 0.0 - - - - - - -
16/08:00am 26.1 N 4 5 1013.4 - 0.0 - - - - - - -
16/07:30am 25.8 N 4 5 1013.2 - 0.0 - - - - - - -
16/07:00am 25.5 N 6 8 1013.0 - 0.0 - - - - - - -
16/06:30am 25.4 N 6 8 1012.8 - 0.0 - - - - - - -
16/06:00am 25.6 NNE 6 8 1012.5 - 0.0 - - - - - - -
16/05:30am 25.8 NNE 6 9 1012.2 - 0.0 - - - - - - -
16/05:00am 26.1 N 7 8 1011.9 - 0.0 - - - - - - -
16/04:30am 24.9 N 2 5 1011.8 - 0.0 - - - - - - -
16/04:00am 24.4 NNW 3 7 1011.5 - 0.0 - - - - - - -
16/03:30am 23.9 N 3 4 1011.6 - 0.0 - - - - - - -
16/03:00am 23.3 CALM 0 0 1011.5 - 0.0 - - - - - - -
16/02:30am 23.6 CALM 0 1 1011.5 - 0.0 - - - - - - -
16/02:00am 23.7 CALM 0 0 1011.7 - 0.0 - - - - - - -
16/01:30am 23.2 CALM 0 0 1011.9 - 0.0 - - - - - - -
16/01:00am 23.0 W 1 2 1012.1 - 0.0 - - - - - - -
16/12:30am 23.2 CALM 0 0 1012.3 - 0.0 - - - - - - -
16/12:00am 23.4 CALM 0 1 1012.4 - 0.0 - - - - - - -
 
Date/Time
CST
Temp

°C
Wind Pressure Rain
since 9am
mm
Weather Cloud Vis
km
Sea
Height
m
Swell
Dir
 
Speed
knots
Gust
knots
hPa Trend Height
m
Period
s
Dir
15/11:30pm 23.5 S 2 2 1012.2 - 0.0 - - - - - - -
15/11:00pm 23.7 S 2 2 1012.1 - 0.0 - - - - - - -
15/10:30pm 24.3 S 3 4 1012.0 - 0.0 - - - - - - -
15/10:00pm 24.3 S 3 4 1012.0 - 0.0 - - - - - - -
15/09:30pm 24.8 S 3 4 1011.9 - 0.0 - - - - - - -
15/09:00pm 25.2 S 4 5 1011.5 - 0.0 - - - - - - -
15/08:30pm 25.2 SSW 3 4 1011.4 - 0.0 - - - - - - -
15/08:00pm 25.6 SSW 2 3 1011.2 - 0.0 - - - - - - -
15/07:30pm 26.0 SW 2 3 1010.9 - 0.0 - - - - - - -
15/07:00pm 26.6 SW 2 4 1010.7 - 0.0 - - - - - - -
15/06:30pm 27.8 WNW 2 3 1010.5 - 0.0 - - - - - - -
15/06:00pm 29.0 WNW 1 2 1010.3 - 0.0 - - - - - - -
15/05:30pm 29.0 N 3 5 1010.1 - 0.0 - - - - - - -
15/05:00pm 28.2 N 5 6 1010.0 - 0.0 - - - - - - -
15/04:30pm 28.7 N 5 7 1010.2 - 0.0 - - - - - - -
15/04:00pm 28.4 N 6 8 1010.2 - 0.0 - - - - - - -
15/03:30pm 29.7 NNW 4 7 1010.3 - 0.0 - - - - - - -
15/03:00pm 29.2 NNW 5 8 1010.6 - 0.0 - - - - - - -
15/02:30pm 29.0 NNW 6 10 1011.2 - 0.0 - - - - - - -
15/02:00pm 28.9 NNW 6 9 1011.6 - 0.0 - - - - - - -
15/01:30pm 29.4 NNW 6 9 1012.1 - 0.0 - - - - - - -
15/01:00pm 28.9 NNW 5 7 1012.8 - 0.0 - - - - - - -
15/12:30pm 28.8 NNW 5 7 1013.2 - 0.0 - - - - - - -
15/12:00pm 28.1 N 7 8 1013.6 - 0.0 - - - - - - -
15/11:30am 27.8 N 6 7 1014.0 - 0.0 - - - - - - -
15/11:00am 27.9 NNE 4 6 1014.4 - 0.0 - - - - - - -
15/10:30am 28.0 NNE 4 6 1014.6 - 0.0 - - - - - - -
15/10:00am 27.4 N 5 6 1014.6 - 0.0 - - - - - - -
15/09:30am 27.4 N 3 4 1014.6 - 0.0 - - - - - - -
15/09:00am 27.5 NNW 2 3 1014.4 - 0.0 - - - - - - -
15/08:30am 26.8 CALM 0 0 1014.2 - 0.0 - - - - - - -
15/08:00am 26.0 CALM 0 0 1013.8 - 0.0 - - - - - - -
15/07:30am 23.4 N 2 2 1013.5 - 0.0 - - - - - - -
15/07:00am 21.9 N 2 3 1013.1 - 0.0 - - - - - - -
15/06:30am 21.7 N 2 2 1012.8 - 0.0 - - - - - - -
15/06:00am 22.0 N 2 3 1012.4 - 0.0 - - - - - - -
15/05:30am 22.8 CALM 0 0 1012.1 - 0.0 - - - - - - -

Other Formats:

Comma delimited format used in spreadsheet applications
http://www.bom.gov.au/fwo/IDD60701/IDD60701.99510.axf

JavaScript Object Notation format (JSON) in row-major order
http://www.bom.gov.au/fwo/IDD60701/IDD60701.99510.json